Terminal Aerodrome Forecast
Issued by NWS Memphis, TN

Home | Current Version | Previous Version | Text Only | Print | Product List | Glossary On
Versions: 1 2 3 4 5 6 7 8 9 10 11 12 13
512
FTUS44 KMEG 251132
TAFJBR
TAF
KJBR 251132Z 2512/2612 05004KT P6SM SKC
     FM251600 17007KT P6SM SCT050 SCT250
     FM260000 VRB03KT P6SM SKC=

USA.gov is the U.S. government's official web portal to all federal, state and local government web resources and services.